ADDS METAR Data INFO
IDs: Format: Raw Decoded Include TAF

Data at: 1959 UTC 25 Feb 2018

KCOM 251955Z AUTO 00000KT 10SM CLR 20/01 A2999 RMK AO2 T01950007
KCOM 251935Z AUTO 00000KT 10SM CLR 19/03 A2999 RMK AO2 T01920025
KCOM 251915Z AUTO 19004KT 10SM CLR 19/02 A3000 RMK AO2 T01850024
KCOM 251855Z AUTO 16007KT 10SM CLR 18/05 A3002 RMK AO2 T01780046
KCOM 251835Z AUTO 14009KT 10SM CLR 17/04 A3003 RMK AO2 T01720044
KCOM 251815Z AUTO 15007KT 10SM CLR 17/04 A3004 RMK AO2 T01710037
KCOM 251755Z AUTO 14007KT 10SM CLR 17/03 A3004 RMK AO2 T01700033 10170 20030
KCOM 251735Z AUTO 16008KT 10SM CLR 17/04 A3005 RMK AO2 T01650042
KCOM 251715Z AUTO 15009KT 10SM CLR 16/03 A3005 RMK AO2 T01600028
KCOM 251655Z AUTO 00000KT 10SM CLR 15/02 A3006 RMK AO2 T01500017
KCOM 251635Z AUTO 00000KT 10SM SCT100 14/03 A3006 RMK AO2 T01350026
KCOM 251615Z AUTO 00000KT 10SM BKN110 11/04 A3006 RMK AO2 T01100043
KCOM 251555Z AUTO 00000KT 10SM OVC110 09/05 A3007 RMK AO2 T00910048
KCOM 251535Z AUTO 14003KT 10SM BKN110 08/04 A3007 RMK AO2 T00830044
KCOM 251515Z AUTO 00000KT 10SM BKN110 08/04 A3006 RMK AO2 T00780036
KCOM 251455Z AUTO 00000KT 10SM BKN110 07/03 A3006 RMK AO2 T00720034
KCOM 251435Z AUTO 00000KT 10SM BKN120 07/01 A3005 RMK AO2 T00720009
KCOM 251415Z AUTO 00000KT 10SM BKN120 06/01 A3005 RMK AO2 T00620009
KCOM 251355Z AUTO 29003KT 10SM SCT100 OVC120 06/01 A3004 RMK AO2 T00570010
KCOM 251335Z AUTO 00000KT 10SM SCT080 BKN120 05/01 A3004 RMK AO2 T00530005
KCOM 251315Z AUTO 29007KT 10SM BKN120 05/00 A3003 RMK AO2 T00470000
KCOM 251255Z AUTO 29007KT 10SM OVC120 05/00 A3003 RMK AO2 T00451005
KCOM 251235Z AUTO 28007KT 10SM OVC110 04/M01 A3001 RMK AO2 T00411006
KCOM 251215Z AUTO 28006KT 10SM OVC110 04/00 A3001 RMK AO2 T00351005
KCOM 251155Z AUTO 27004KT 10SM BKN110 03/00 A3002 RMK AO2 70006 T00301002 10082 20027
KCOM 251135Z AUTO 28003KT 10SM SCT110 03/M01 A3001 RMK AO2 T00321006
KCOM 251115Z AUTO 00000KT 10SM SCT110 03/00 A3001 RMK AO2 T00321005
KCOM 251055Z AUTO 26004KT 10SM SCT110 03/00 A3002 RMK AO2 T00311005
KCOM 251030Z AUTO 27005KT 10SM CLR 03/00 A3001 RMK AO2 T00311005
KCOM 251015Z AUTO 27004KT 10SM CLR 03/00 A3001 RMK AO2 T00301004
KCOM 250955Z AUTO 27003KT 10SM CLR 04/00 A3001 RMK AO2 T00351005
KCOM 250935Z AUTO 22003KT 10SM CLR 03/00 A3001 RMK AO2 T00271001
KCOM 250915Z AUTO 29004KT 10SM CLR 04/00 A3001 RMK AO2 T00351005
KCOM 250855Z AUTO 31003KT 10SM CLR 04/00 A3001 RMK AO2 T00421005
KCOM 250835Z AUTO 32004KT 10SM CLR 04/00 A3001 RMK AO2 T00411003
KCOM 250815Z AUTO 34004KT 10SM CLR 06/M01 A3002 RMK AO2 T00601014
KCOM 250755Z AUTO 00000KT 10SM CLR 05/00 A3003 RMK AO2 T00491001
KCOM 250735Z AUTO 32003KT 10SM CLR 05/00 A3003 RMK AO2 T00501001
KCOM 250715Z AUTO 32003KT 10SM CLR 05/01 A3003 RMK AO2 T00460006
KCOM 250655Z AUTO 34004KT 10SM CLR 08/M01 A3003 RMK AO2 T00791011
KCOM 250635Z AUTO 35004KT 10SM CLR 07/M01 A3003 RMK AO2 T00741006
KCOM 250615Z AUTO 00000KT 10SM CLR 07/01 A3003 RMK AO2 T00660011
KCOM 250555Z AUTO 00000KT 10SM CLR 08/01 A3002 RMK AO2 T00780005 10192 20066 402170066
KCOM 250535Z AUTO 36004KT 10SM CLR 09/00 A3002 RMK AO2 T00910000
KCOM 250515Z AUTO 00000KT 10SM CLR 08/01 A3002 RMK AO2 T00810011
KCOM 250455Z AUTO 00000KT 10SM CLR 09/01 A3003 RMK AO2 T00870011
KCOM 250435Z AUTO 36003KT 10SM CLR 10/01 A3001 RMK AO2 T01010007
KCOM 250415Z AUTO 00000KT 10SM CLR 09/02 A3001 RMK AO2 T00900024
KCOM 250355Z AUTO 00000KT 10SM CLR 11/02 A3001 RMK AO2 T01050022
KCOM 250335Z AUTO 00000KT 10SM CLR 11/02 A3001 RMK AO2 T01110019
KCOM 250315Z AUTO 29004KT 10SM CLR 12/02 A3000 RMK AO2 T01170023
KCOM 250255Z AUTO 33005KT 10SM CLR 13/03 A2999 RMK AO2 T01250026
KCOM 250235Z AUTO 30006KT 10SM CLR 11/03 A2997 RMK AO2 T01070033
KCOM 250215Z AUTO 30003KT 10SM CLR 11/05 A2996 RMK AO2 T01130045
KCOM 250155Z AUTO 31003KT 10SM CLR 14/02 A2995 RMK AO2 T01400019
KCOM 250135Z AUTO 00000KT 10SM CLR 13/03 A2995 RMK AO2 T01320032
KCOM 250115Z AUTO 00000KT 10SM CLR 16/01 A2995 RMK AO2 T01590008
KCOM 250055Z AUTO 00000KT 10SM CLR 18/00 A2993 RMK AO2 T01750000
KCOM 250035Z AUTO 00000KT 10SM CLR 17/01 A2993 RMK AO2 T01710009
KCOM 250015Z AUTO 28003KT 10SM CLR 18/02 A2993 RMK AO2 T01780019
KCOM 242355Z AUTO 29005KT 10SM CLR 19/01 A2992 RMK AO2 T01940014 10217 20194
KCOM 242335Z AUTO 31006KT 10SM CLR 20/01 A2992 RMK AO2 T01990005
KCOM 242310Z AUTO 29005KT 10SM CLR 21/01 A2991 RMK AO2 T02050011
KCOM 242255Z AUTO 30008KT 10SM CLR 20/02 A2990 RMK AO2 T02030021
KCOM 242235Z AUTO 31009G17KT 10SM CLR 20/02 A2990 RMK AO2 T02040021
KCOM 242215Z AUTO 31010G17KT 10SM CLR 21/02 A2990 RMK AO2 T02140018
KCOM 242155Z AUTO 30010G16KT 10SM CLR 21/03 A2989 RMK AO2 T02120026
KCOM 242135Z AUTO 34010KT 10SM CLR 21/05 A2989 RMK AO2 T02110047
KCOM 242115Z AUTO 35011KT 10SM CLR 21/06 A2989 RMK AO2 T02080056
KCOM 242055Z AUTO 34009KT 10SM CLR 21/08 A2989 RMK AO2 T02090076
KCOM 242035Z AUTO 32009G15KT 10SM CLR 21/10 A2989 RMK AO2 T02100103
KCOM 242015Z AUTO 31007KT 10SM CLR 21/10 A2989 RMK AO2 T02070099
KCOM 241955Z AUTO 34009KT 10SM SCT041 21/10 A2989 RMK AO2 T02120104
KCOM 241935Z AUTO 33011KT 10SM SCT041 SCT050 21/11 A2989 RMK AO2 T02110111
KCOM 241915Z AUTO 32007G14KT 10SM SCT041 SCT050 21/11 A2989 RMK AO2 T02070105
KCOM 241855Z AUTO 27009G16KT 10SM SCT039 21/11 A2990 RMK AO2 T02120110
KCOM 241835Z AUTO 27011G18KT 10SM CLR 21/11 A2990 RMK AO2 T02110106
KCOM 241815Z AUTO 29011G16KT 10SM CLR 22/09 A2990 RMK AO2 T02150092
KCOM 241755Z AUTO 29012G17KT 10SM CLR 21/13 A2990 RMK AO2 60006 T02100130 10211 20127
KCOM 241735Z AUTO 26012G19KT 10SM CLR 21/14 A2990 RMK AO2 T02050136
KCOM 241715Z AUTO 26012G19KT 10SM SCT016 20/15 A2990 RMK AO2 T02000146
KCOM 241655Z AUTO 26016G19KT 10SM BKN016 BKN023 19/16 A2991 RMK AO2 T01880159
KCOM 241635Z AUTO 24015G21KT 10SM SCT009 BKN014 18/17 A2990 RMK AO2 T01770173
KCOM 241615Z AUTO 25008KT 7SM SCT003 BKN007 BKN014 16/16 A2990 RMK AO2 T01640160
KCOM 241555Z AUTO 01003KT 1 3/4SM BR OVC003 14/13 A2990 RMK AO2 T01370133
KCOM 241535Z AUTO 36004KT 3SM BR OVC003 13/13 A2989 RMK AO2 T01270125
KCOM 241515Z AUTO 01003KT 3SM BR OVC003 13/13 A2989 RMK AO2 T01320130
KCOM 241455Z AUTO 00000KT 7SM OVC003 15/14 A2988 RMK AO2 LTG DSNT NE 60006 T01450141
KCOM 241435Z AUTO 32004KT 5SM BR OVC003 14/14 A2989 RMK AO2 T01410138
KCOM 241415Z AUTO 28003KT 4SM BR BKN003 OVC009 14/14 A2987 RMK AO2 LTG DSNT NE T01420140
KCOM 241355Z AUTO 00000KT 2SM -RA OVC007 14/13 A2987 RMK AO2 P0006 T01350132
KCOM 241335Z AUTO 20005KT 4SM BR SCT009 OVC012 13/13 A2986 RMK AO2 P0001 T01300126
KCOM 241315Z AUTO 23004KT 2 1/2SM -DZ SCT002 BKN010 OVC014 13/13 A2985 RMK AO2 P0001 T01280125
KCOM 241255Z AUTO 22005KT 1/4SM -RA OVC002 13/13 A2984 RMK AO2 LTG DSNT NE T01270125
KCOM 241235Z AUTO 23005KT 1/4SM FG OVC002 13/13 A2984 RMK AO2 T01320129
KCOM 241215Z AUTO 21005KT 1/4SM FG OVC002 14/13 A2984 RMK AO2 LTG DSNT E T01350132
KCOM 241155Z AUTO 18007KT 1/4SM -DZ OVC002 13/13 A2983 RMK AO2 T01340131 10135 20070
KCOM 241135Z AUTO 17006KT 1/4SM DZ OVC002 13/13 A2983 RMK AO2 LTG DSNT E T01300126
KCOM 241115Z AUTO 16008KT 1/4SM FG OVC002 11/10 A2983 RMK AO2 T01070104
KCOM 241055Z AUTO 00000KT 1/2SM FG OVC002 08/08 A2983 RMK AO2 T00810078
KCOM 241035Z AUTO 00000KT 1/4SM FG OVC002 08/08 A2984 RMK AO2 T00790075
KCOM 241015Z AUTO 00000KT 1/4SM FG OVC002 08/07 A2984 RMK AO2 T00760073
KCOM 240955Z AUTO 00000KT 1/2SM FG OVC002 08/07 A2985 RMK AO2 T00750072
KCOM 240935Z AUTO 09003KT 1/2SM FG OVC002 08/07 A2986 RMK AO2 LTG DSNT SE T00750071
KCOM 240915Z AUTO 09003KT 1/2SM -RA OVC002 07/07 A2987 RMK AO2 T00720068
KCOM 240855Z AUTO 00000KT 1/2SM -RA OVC002 07/07 A2989 RMK AO2 T00710067
KCOM 240835Z AUTO 06003KT 1/4SM FG OVC002 07/07 A2991 RMK AO2 T00700067
KCOM 240815Z AUTO 06003KT 1/4SM FG OVC002 07/07 A2992 RMK AO2 T00700066